sensor_id;sensor_type;location;lat;lon;timestamp;pressure;altitude;pressure_sealevel;temperature
4421;BMP180;11824;51.178;13.546;2024-03-23T00:54:06;99467.00;;;8.50
4421;BMP180;11824;51.178;13.546;2024-03-23T00:56:33;99455.00;;;8.50
4421;BMP180;11824;51.178;13.546;2024-03-23T00:59:01;99464.00;;;8.40
4421;BMP180;11824;51.178;13.546;2024-03-23T01:01:28;99460.00;;;8.40
4421;BMP180;11824;51.178;13.546;2024-03-23T01:03:55;99455.00;;;8.30
4421;BMP180;11824;51.178;13.546;2024-03-23T01:06:22;99459.00;;;8.20
4421;BMP180;11824;51.178;13.546;2024-03-23T01:08:50;99461.00;;;8.20
4421;BMP180;11824;51.178;13.546;2024-03-23T01:11:18;99467.00;;;8.10
4421;BMP180;11824;51.178;13.546;2024-03-23T01:13:46;99454.00;;;8.10
4421;BMP180;11824;51.178;13.546;2024-03-23T01:16:12;99455.00;;;8.10
4421;BMP180;11824;51.178;13.546;2024-03-23T01:18:40;99454.00;;;8.10
4421;BMP180;11824;51.178;13.546;2024-03-23T01:21:07;99446.00;;;8.10
4421;BMP180;11824;51.178;13.546;2024-03-23T01:23:35;99443.00;;;8.20
4421;BMP180;11824;51.178;13.546;2024-03-23T01:26:02;99427.00;;;8.20
4421;BMP180;11824;51.178;13.546;2024-03-23T01:28:31;99440.00;;;8.30
4421;BMP180;11824;51.178;13.546;2024-03-23T01:30:57;99439.00;;;8.30
4421;BMP180;11824;51.178;13.546;2024-03-23T01:33:25;99420.00;;;8.40
4421;BMP180;11824;51.178;13.546;2024-03-23T01:35:52;99419.00;;;8.50
4421;BMP180;11824;51.178;13.546;2024-03-23T01:38:20;99410.00;;;8.50
4421;BMP180;11824;51.178;13.546;2024-03-23T01:40:47;99412.00;;;8.60
4421;BMP180;11824;51.178;13.546;2024-03-23T01:43:14;99405.00;;;8.70
4421;BMP180;11824;51.178;13.546;2024-03-23T01:45:42;99405.00;;;8.70
4421;BMP180;11824;51.178;13.546;2024-03-23T01:48:10;99412.00;;;8.80
4421;BMP180;11824;51.178;13.546;2024-03-23T01:50:38;99399.00;;;8.90
4421;BMP180;11824;51.178;13.546;2024-03-23T01:53:06;99388.00;;;8.90
4421;BMP180;11824;51.178;13.546;2024-03-23T01:55:33;99404.00;;;9.00
4421;BMP180;11824;51.178;13.546;2024-03-23T01:58:01;99390.00;;;9.10
4421;BMP180;11824;51.178;13.546;2024-03-23T02:00:28;99387.00;;;9.10
4421;BMP180;11824;51.178;13.546;2024-03-23T02:02:57;99386.00;;;9.20
4421;BMP180;11824;51.178;13.546;2024-03-23T02:05:24;99374.00;;;9.30
4421;BMP180;11824;51.178;13.546;2024-03-23T02:07:52;99361.00;;;9.30
4421;BMP180;11824;51.178;13.546;2024-03-23T02:10:19;99364.00;;;9.40
4421;BMP180;11824;51.178;13.546;2024-03-23T02:12:46;99380.00;;;9.40
4421;BMP180;11824;51.178;13.546;2024-03-23T02:15:13;99379.00;;;9.40
4421;BMP180;11824;51.178;13.546;2024-03-23T02:17:41;99374.00;;;9.40
4421;BMP180;11824;51.178;13.546;2024-03-23T02:20:11;99370.00;;;9.40
4421;BMP180;11824;51.178;13.546;2024-03-23T02:22:39;99355.00;;;9.40
4421;BMP180;11824;51.178;13.546;2024-03-23T02:25:07;99359.00;;;9.50
4421;BMP180;11824;51.178;13.546;2024-03-23T02:27:35;99351.00;;;9.50
4421;BMP180;11824;51.178;13.546;2024-03-23T02:30:02;99351.00;;;9.50
4421;BMP180;11824;51.178;13.546;2024-03-23T02:32:30;99347.00;;;9.50
4421;BMP180;11824;51.178;13.546;2024-03-23T02:34:57;99340.00;;;9.60
4421;BMP180;11824;51.178;13.546;2024-03-23T02:37:25;99336.00;;;9.50
4421;BMP180;11824;51.178;13.546;2024-03-23T02:39:52;99344.00;;;9.50
4421;BMP180;11824;51.178;13.546;2024-03-23T02:42:21;99342.00;;;9.60
4421;BMP180;11824;51.178;13.546;2024-03-23T02:44:47;99339.00;;;9.60
4421;BMP180;11824;51.178;13.546;2024-03-23T02:47:15;99326.00;;;9.60
4421;BMP180;11824;51.178;13.546;2024-03-23T02:49:42;99327.00;;;9.60
4421;BMP180;11824;51.178;13.546;2024-03-23T02:52:10;99325.00;;;9.60
4421;BMP180;11824;51.178;13.546;2024-03-23T02:54:37;99326.00;;;9.60
4421;BMP180;11824;51.178;13.546;2024-03-23T02:57:05;99326.00;;;9.60
4421;BMP180;11824;51.178;13.546;2024-03-23T02:59:33;99320.00;;;9.70
4421;BMP180;11824;51.178;13.546;2024-03-23T03:02:01;99311.00;;;9.70
4421;BMP180;11824;51.178;13.546;2024-03-23T03:04:27;99298.00;;;9.70
4421;BMP180;11824;51.178;13.546;2024-03-23T03:06:55;99306.00;;;9.70
4421;BMP180;11824;51.178;13.546;2024-03-23T03:09:22;99314.00;;;9.80
4421;BMP180;11824;51.178;13.546;2024-03-23T03:11:50;99308.00;;;9.80
4421;BMP180;11824;51.178;13.546;2024-03-23T03:14:16;99304.00;;;9.80
4421;BMP180;11824;51.178;13.546;2024-03-23T03:16:45;99296.00;;;9.90
4421;BMP180;11824;51.178;13.546;2024-03-23T03:19:12;99289.00;;;9.90
4421;BMP180;11824;51.178;13.546;2024-03-23T03:21:40;99294.00;;;9.90
4421;BMP180;11824;51.178;13.546;2024-03-23T03:24:07;99289.00;;;9.90
4421;BMP180;11824;51.178;13.546;2024-03-23T03:26:35;99294.00;;;9.90
4421;BMP180;11824;51.178;13.546;2024-03-23T03:29:02;99289.00;;;9.90
4421;BMP180;11824;51.178;13.546;2024-03-23T03:31:30;99274.00;;;9.90
4421;BMP180;11824;51.178;13.546;2024-03-23T03:33:58;99273.00;;;10.00
4421;BMP180;11824;51.178;13.546;2024-03-23T03:36:26;99273.00;;;10.00
4421;BMP180;11824;51.178;13.546;2024-03-23T03:38:53;99282.00;;;10.00
4421;BMP180;11824;51.178;13.546;2024-03-23T03:41:20;99274.00;;;10.00
4421;BMP180;11824;51.178;13.546;2024-03-23T03:43:47;99268.00;;;10.00
4421;BMP180;11824;51.178;13.546;2024-03-23T03:46:15;99259.00;;;10.10
4421;BMP180;11824;51.178;13.546;2024-03-23T03:48:42;99255.00;;;10.10
4421;BMP180;11824;51.178;13.546;2024-03-23T03:51:12;99253.00;;;10.10
4421;BMP180;11824;51.178;13.546;2024-03-23T03:53:39;99260.00;;;10.20
4421;BMP180;11824;51.178;13.546;2024-03-23T03:56:07;99266.00;;;10.20
4421;BMP180;11824;51.178;13.546;2024-03-23T03:58:34;99259.00;;;10.20
4421;BMP180;11824;51.178;13.546;2024-03-23T04:01:01;99247.00;;;10.20
4421;BMP180;11824;51.178;13.546;2024-03-23T04:03:28;99244.00;;;10.30
4421;BMP180;11824;51.178;13.546;2024-03-23T04:05:56;99245.00;;;10.30
4421;BMP180;11824;51.178;13.546;2024-03-23T04:08:24;99241.00;;;10.30
4421;BMP180;11824;51.178;13.546;2024-03-23T04:10:52;99231.00;;;10.40
4421;BMP180;11824;51.178;13.546;2024-03-23T04:13:19;99236.00;;;10.40
4421;BMP180;11824;51.178;13.546;2024-03-23T04:15:47;99224.00;;;10.40
4421;BMP180;11824;51.178;13.546;2024-03-23T04:18:14;99223.00;;;10.40
4421;BMP180;11824;51.178;13.546;2024-03-23T04:20:42;99208.00;;;10.40
4421;BMP180;11824;51.178;13.546;2024-03-23T04:23:08;99205.00;;;10.40
4421;BMP180;11824;51.178;13.546;2024-03-23T04:25:37;99205.00;;;10.40
4421;BMP180;11824;51.178;13.546;2024-03-23T04:28:04;99218.00;;;10.40
4421;BMP180;11824;51.178;13.546;2024-03-23T04:30:33;99216.00;;;10.30
4421;BMP180;11824;51.178;13.546;2024-03-23T04:32:59;99229.00;;;10.40
4421;BMP180;11824;51.178;13.546;2024-03-23T04:35:28;99221.00;;;10.40
4421;BMP180;11824;51.178;13.546;2024-03-23T04:37:54;99213.00;;;10.30
4421;BMP180;11824;51.178;13.546;2024-03-23T04:40:25;99195.00;;;10.30
4421;BMP180;11824;51.178;13.546;2024-03-23T04:42:54;99181.00;;;10.30
4421;BMP180;11824;51.178;13.546;2024-03-23T04:45:22;99169.00;;;10.30
4421;BMP180;11824;51.178;13.546;2024-03-23T04:47:49;99168.00;;;10.30
4421;BMP180;11824;51.178;13.546;2024-03-23T04:50:18;99152.00;;;10.40
4421;BMP180;11824;51.178;13.546;2024-03-23T04:52:45;99153.00;;;10.30
4421;BMP180;11824;51.178;13.546;2024-03-23T04:55:12;99158.00;;;10.30
4421;BMP180;11824;51.178;13.546;2024-03-23T04:57:40;99141.00;;;10.30
4421;BMP180;11824;51.178;13.546;2024-03-23T05:00:11;99137.00;;;10.30
4421;BMP180;11824;51.178;13.546;2024-03-23T05:02:44;99137.00;;;10.30
4421;BMP180;11824;51.178;13.546;2024-03-23T05:05:12;99138.00;;;10.30
4421;BMP180;11824;51.178;13.546;2024-03-23T05:07:39;99131.00;;;10.30
4421;BMP180;11824;51.178;13.546;2024-03-23T05:10:08;99120.00;;;10.40
4421;BMP180;11824;51.178;13.546;2024-03-23T05:12:37;99109.00;;;10.40
4421;BMP180;11824;51.178;13.546;2024-03-23T05:15:05;99104.00;;;10.40
4421;BMP180;11824;51.178;13.546;2024-03-23T05:17:34;99097.00;;;10.40
4421;BMP180;11824;51.178;13.546;2024-03-23T05:20:03;99091.00;;;10.40
4421;BMP180;11824;51.178;13.546;2024-03-23T05:22:29;99067.00;;;10.40
4421;BMP180;11824;51.178;13.546;2024-03-23T05:24:58;99077.00;;;10.50
4421;BMP180;11824;51.178;13.546;2024-03-23T05:27:25;99065.00;;;10.50
4421;BMP180;11824;51.178;13.546;2024-03-23T05:29:52;99051.00;;;10.50
4421;BMP180;11824;51.178;13.546;2024-03-23T05:32:19;99068.00;;;10.50
4421;BMP180;11824;51.178;13.546;2024-03-23T05:34:48;99060.00;;;10.50
4421;BMP180;11824;51.178;13.546;2024-03-23T05:37:18;99060.00;;;10.50
4421;BMP180;11824;51.178;13.546;2024-03-23T05:39:45;99058.00;;;10.50
4421;BMP180;11824;51.178;13.546;2024-03-23T05:42:14;99061.00;;;10.60
4421;BMP180;11824;51.178;13.546;2024-03-23T05:44:43;99053.00;;;10.60
4421;BMP180;11824;51.178;13.546;2024-03-23T05:47:10;99041.00;;;10.60
4421;BMP180;11824;51.178;13.546;2024-03-23T05:49:39;99040.00;;;10.70
4421;BMP180;11824;51.178;13.546;2024-03-23T05:52:10;99053.00;;;10.70
4421;BMP180;11824;51.178;13.546;2024-03-23T05:54:38;99050.00;;;10.70
4421;BMP180;11824;51.178;13.546;2024-03-23T05:57:05;99044.00;;;10.70
4421;BMP180;11824;51.178;13.546;2024-03-23T05:59:33;99024.00;;;10.70
4421;BMP180;11824;51.178;13.546;2024-03-23T06:02:00;99011.00;;;10.70
4421;BMP180;11824;51.178;13.546;2024-03-23T06:04:30;99027.00;;;10.80
4421;BMP180;11824;51.178;13.546;2024-03-23T06:06:57;99025.00;;;10.80
4421;BMP180;11824;51.178;13.546;2024-03-23T06:09:26;99008.00;;;10.80
4421;BMP180;11824;51.178;13.546;2024-03-23T06:11:53;98980.00;;;10.80
4421;BMP180;11824;51.178;13.546;2024-03-23T06:14:21;98968.00;;;10.80
4421;BMP180;11824;51.178;13.546;2024-03-23T06:16:47;98980.00;;;10.80
4421;BMP180;11824;51.178;13.546;2024-03-23T06:19:15;98982.00;;;10.80
4421;BMP180;11824;51.178;13.546;2024-03-23T06:21:43;98980.00;;;10.80
4421;BMP180;11824;51.178;13.546;2024-03-23T06:24:11;98995.00;;;10.80
4421;BMP180;11824;51.178;13.546;2024-03-23T06:26:39;98971.00;;;10.80
4421;BMP180;11824;51.178;13.546;2024-03-23T06:29:07;98970.00;;;10.80
4421;BMP180;11824;51.178;13.546;2024-03-23T06:31:34;98966.00;;;10.80
4421;BMP180;11824;51.178;13.546;2024-03-23T06:34:02;98951.00;;;10.80
4421;BMP180;11824;51.178;13.546;2024-03-23T06:36:29;98938.00;;;10.80
4421;BMP180;11824;51.178;13.546;2024-03-23T06:38:57;98932.00;;;10.90
4421;BMP180;11824;51.178;13.546;2024-03-23T06:41:24;98923.00;;;10.90
4421;BMP180;11824;51.178;13.546;2024-03-23T06:43:53;98918.00;;;10.90
4421;BMP180;11824;51.178;13.546;2024-03-23T06:46:19;98910.00;;;10.90
4421;BMP180;11824;51.178;13.546;2024-03-23T06:48:47;98915.00;;;10.90
4421;BMP180;11824;51.178;13.546;2024-03-23T06:51:14;98925.00;;;10.90
4421;BMP180;11824;51.178;13.546;2024-03-23T06:53:42;98926.00;;;10.90
4421;BMP180;11824;51.178;13.546;2024-03-23T06:56:08;98927.00;;;10.80
4421;BMP180;11824;51.178;13.546;2024-03-23T06:58:36;98922.00;;;10.90
4421;BMP180;11824;51.178;13.546;2024-03-23T07:01:04;98923.00;;;10.80
4421;BMP180;11824;51.178;13.546;2024-03-23T07:03:33;98929.00;;;10.90
4421;BMP180;11824;51.178;13.546;2024-03-23T07:06:00;98926.00;;;10.80
4421;BMP180;11824;51.178;13.546;2024-03-23T07:08:28;98937.00;;;10.80
4421;BMP180;11824;51.178;13.546;2024-03-23T07:10:55;98937.00;;;10.80
4421;BMP180;11824;51.178;13.546;2024-03-23T07:13:23;98934.00;;;10.80
4421;BMP180;11824;51.178;13.546;2024-03-23T07:15:53;98932.00;;;10.80
4421;BMP180;11824;51.178;13.546;2024-03-23T07:18:23;98927.00;;;10.90
4421;BMP180;11824;51.178;13.546;2024-03-23T07:20:53;98924.00;;;10.90
4421;BMP180;11824;51.178;13.546;2024-03-23T07:23:21;98900.00;;;10.90
4421;BMP180;11824;51.178;13.546;2024-03-23T07:25:57;98913.00;;;10.90
4421;BMP180;11824;51.178;13.546;2024-03-23T07:28:24;98907.00;;;10.90
4421;BMP180;11824;51.178;13.546;2024-03-23T07:31:02;98885.00;;;10.90
4421;BMP180;11824;51.178;13.546;2024-03-23T07:33:32;98856.00;;;10.90
4421;BMP180;11824;51.178;13.546;2024-03-23T07:35:59;98850.00;;;10.90
4421;BMP180;11824;51.178;13.546;2024-03-23T07:38:28;98840.00;;;10.90
4421;BMP180;11824;51.178;13.546;2024-03-23T07:41:03;98829.00;;;10.80
4421;BMP180;11824;51.178;13.546;2024-03-23T07:43:31;98815.00;;;10.90
4421;BMP180;11824;51.178;13.546;2024-03-23T07:45:59;98803.00;;;10.90
4421;BMP180;11824;51.178;13.546;2024-03-23T07:48:27;98807.00;;;11.00
4421;BMP180;11824;51.178;13.546;2024-03-23T07:51:03;98815.00;;;11.00
4421;BMP180;11824;51.178;13.546;2024-03-23T07:53:32;98799.00;;;11.10
4421;BMP180;11824;51.178;13.546;2024-03-23T07:56:00;98792.00;;;11.20
4421;BMP180;11824;51.178;13.546;2024-03-23T07:58:28;98772.00;;;11.30
4421;BMP180;11824;51.178;13.546;2024-03-23T08:00:55;98763.00;;;11.50
4421;BMP180;11824;51.178;13.546;2024-03-23T08:03:23;98766.00;;;11.70
4421;BMP180;11824;51.178;13.546;2024-03-23T08:05:50;98772.00;;;11.80
4421;BMP180;11824;51.178;13.546;2024-03-23T08:08:19;98765.00;;;12.00
4421;BMP180;11824;51.178;13.546;2024-03-23T08:10:50;98764.00;;;12.00
4421;BMP180;11824;51.178;13.546;2024-03-23T08:13:18;98754.00;;;12.00
4421;BMP180;11824;51.178;13.546;2024-03-23T08:15:45;98745.00;;;12.10
4421;BMP180;11824;51.178;13.546;2024-03-23T08:18:14;98746.00;;;12.10
4421;BMP180;11824;51.178;13.546;2024-03-23T08:20:41;98735.00;;;12.20
4421;BMP180;11824;51.178;13.546;2024-03-23T08:23:09;98731.00;;;12.20
4421;BMP180;11824;51.178;13.546;2024-03-23T08:25:37;98730.00;;;12.30
4421;BMP180;11824;51.178;13.546;2024-03-23T08:28:06;98723.00;;;12.40
4421;BMP180;11824;51.178;13.546;2024-03-23T08:30:35;98718.00;;;12.50
4421;BMP180;11824;51.178;13.546;2024-03-23T08:33:03;98716.00;;;12.60
4421;BMP180;11824;51.178;13.546;2024-03-23T08:35:30;98700.00;;;12.70
4421;BMP180;11824;51.178;13.546;2024-03-23T08:37:58;98711.00;;;12.90
4421;BMP180;11824;51.178;13.546;2024-03-23T08:40:25;98729.00;;;13.00
4421;BMP180;11824;51.178;13.546;2024-03-23T08:42:54;98727.00;;;13.10
4421;BMP180;11824;51.178;13.546;2024-03-23T08:45:21;98735.00;;;13.10
4421;BMP180;11824;51.178;13.546;2024-03-23T08:47:48;98728.00;;;13.10
4421;BMP180;11824;51.178;13.546;2024-03-23T08:50:15;98717.00;;;13.10
4421;BMP180;11824;51.178;13.546;2024-03-23T08:52:43;98723.00;;;13.10
4421;BMP180;11824;51.178;13.546;2024-03-23T08:55:10;98726.00;;;13.10
4421;BMP180;11824;51.178;13.546;2024-03-23T08:57:38;98719.00;;;13.20
4421;BMP180;11824;51.178;13.546;2024-03-23T09:00:07;98726.00;;;13.10
4421;BMP180;11824;51.178;13.546;2024-03-23T09:02:35;98726.00;;;13.10
4421;BMP180;11824;51.178;13.546;2024-03-23T09:05:02;98722.00;;;13.10
4421;BMP180;11824;51.178;13.546;2024-03-23T09:07:31;98721.00;;;13.10
4421;BMP180;11824;51.178;13.546;2024-03-23T09:09:58;98716.00;;;13.20
4421;BMP180;11824;51.178;13.546;2024-03-23T09:12:26;98720.00;;;13.20
4421;BMP180;11824;51.178;13.546;2024-03-23T09:14:53;98722.00;;;13.30
4421;BMP180;11824;51.178;13.546;2024-03-23T09:17:22;98710.00;;;13.30
4421;BMP180;11824;51.178;13.546;2024-03-23T09:19:49;98723.00;;;13.30
4421;BMP180;11824;51.178;13.546;2024-03-23T09:22:16;98723.00;;;13.30
4421;BMP180;11824;51.178;13.546;2024-03-23T09:24:43;98777.00;;;13.20
4421;BMP180;11824;51.178;13.546;2024-03-23T09:27:11;98776.00;;;13.10
4421;BMP180;11824;51.178;13.546;2024-03-23T09:29:38;98817.00;;;12.90
4421;BMP180;11824;51.178;13.546;2024-03-23T09:32:06;98832.00;;;12.60
4421;BMP180;11824;51.178;13.546;2024-03-23T09:34:34;98839.00;;;12.20
4421;BMP180;11824;51.178;13.546;2024-03-23T09:37:02;98843.00;;;11.80
4421;BMP180;11824;51.178;13.546;2024-03-23T09:39:29;98884.00;;;11.40
4421;BMP180;11824;51.178;13.546;2024-03-23T09:41:58;98895.00;;;11.10
4421;BMP180;11824;51.178;13.546;2024-03-23T09:44:25;98882.00;;;10.70
4421;BMP180;11824;51.178;13.546;2024-03-23T09:46:55;98906.00;;;10.40
4421;BMP180;11824;51.178;13.546;2024-03-23T09:49:22;98927.00;;;10.10
4421;BMP180;11824;51.178;13.546;2024-03-23T09:51:52;98940.00;;;9.80
4421;BMP180;11824;51.178;13.546;2024-03-23T09:54:21;98958.00;;;9.70
4421;BMP180;11824;51.178;13.546;2024-03-23T09:56:49;98986.00;;;9.50
4421;BMP180;11824;51.178;13.546;2024-03-23T09:59:16;98998.00;;;9.30
4421;BMP180;11824;51.178;13.546;2024-03-23T10:01:44;99036.00;;;9.10
4421;BMP180;11824;51.178;13.546;2024-03-23T10:04:11;99071.00;;;8.90
4421;BMP180;11824;51.178;13.546;2024-03-23T10:06:39;99054.00;;;8.70
4421;BMP180;11824;51.178;13.546;2024-03-23T10:09:17;99043.00;;;8.50
4421;BMP180;11824;51.178;13.546;2024-03-23T10:11:45;99071.00;;;8.30
4421;BMP180;11824;51.178;13.546;2024-03-23T10:14:29;99066.00;;;8.20
4421;BMP180;11824;51.178;13.546;2024-03-23T10:17:12;99052.00;;;8.00
4421;BMP180;11824;51.178;13.546;2024-03-23T10:19:41;99089.00;;;7.90
4421;BMP180;11824;51.178;13.546;2024-03-23T10:22:13;99096.00;;;7.80
4421;BMP180;11824;51.178;13.546;2024-03-23T10:24:42;99104.00;;;7.60
4421;BMP180;11824;51.178;13.546;2024-03-23T10:27:10;99107.00;;;7.50
4421;BMP180;11824;51.178;13.546;2024-03-23T10:29:41;99129.00;;;7.40
4421;BMP180;11824;51.178;13.546;2024-03-23T10:32:09;99147.00;;;7.30
4421;BMP180;11824;51.178;13.546;2024-03-23T10:34:37;99155.00;;;7.20
4421;BMP180;11824;51.178;13.546;2024-03-23T10:37:05;99168.00;;;7.10
4421;BMP180;11824;51.178;13.546;2024-03-23T10:39:33;99184.00;;;7.00
4421;BMP180;11824;51.178;13.546;2024-03-23T10:42:08;99188.00;;;7.00
4421;BMP180;11824;51.178;13.546;2024-03-23T10:44:35;99183.00;;;6.90
4421;BMP180;11824;51.178;13.546;2024-03-23T10:47:05;99216.00;;;6.90
4421;BMP180;11824;51.178;13.546;2024-03-23T10:49:33;99209.00;;;6.90
4421;BMP180;11824;51.178;13.546;2024-03-23T10:52:01;99242.00;;;6.90
4421;BMP180;11824;51.178;13.546;2024-03-23T10:54:29;99226.00;;;7.00
4421;BMP180;11824;51.178;13.546;2024-03-23T10:56:59;99235.00;;;7.00
4421;BMP180;11824;51.178;13.546;2024-03-23T10:59:30;99253.00;;;7.00
4421;BMP180;11824;51.178;13.546;2024-03-23T11:01:59;99274.00;;;7.00
4421;BMP180;11824;51.178;13.546;2024-03-23T11:04:31;99289.00;;;7.00
4421;BMP180;11824;51.178;13.546;2024-03-23T11:06:59;99299.00;;;7.00
4421;BMP180;11824;51.178;13.546;2024-03-23T11:09:42;99297.00;;;7.00
4421;BMP180;11824;51.178;13.546;2024-03-23T11:12:26;99291.00;;;7.00
4421;BMP180;11824;51.178;13.546;2024-03-23T11:14:55;99297.00;;;7.00
4421;BMP180;11824;51.178;13.546;2024-03-23T11:17:25;99308.00;;;7.00
4421;BMP180;11824;51.178;13.546;2024-03-23T11:19:56;99318.00;;;7.10
4421;BMP180;11824;51.178;13.546;2024-03-23T11:22:44;99323.00;;;7.10
4421;BMP180;11824;51.178;13.546;2024-03-23T11:25:15;99323.00;;;7.10
4421;BMP180;11824;51.178;13.546;2024-03-23T11:27:44;99314.00;;;7.10
4421;BMP180;11824;51.178;13.546;2024-03-23T11:30:16;99322.00;;;7.10
4421;BMP180;11824;51.178;13.546;2024-03-23T11:32:46;99331.00;;;7.20
4421;BMP180;11824;51.178;13.546;2024-03-23T11:35:27;99342.00;;;7.20
4421;BMP180;11824;51.178;13.546;2024-03-23T11:38:08;99332.00;;;7.20
4421;BMP180;11824;51.178;13.546;2024-03-23T11:40:36;99335.00;;;7.30
4421;BMP180;11824;51.178;13.546;2024-03-23T11:43:06;99343.00;;;7.40
4421;BMP180;11824;51.178;13.546;2024-03-23T11:45:38;99339.00;;;7.50
4421;BMP180;11824;51.178;13.546;2024-03-23T11:48:08;99343.00;;;7.60
4421;BMP180;11824;51.178;13.546;2024-03-23T11:50:36;99357.00;;;7.70
4421;BMP180;11824;51.178;13.546;2024-03-23T11:53:09;99347.00;;;7.70
4421;BMP180;11824;51.178;13.546;2024-03-23T11:55:47;99353.00;;;7.70
4421;BMP180;11824;51.178;13.546;2024-03-23T11:58:16;99361.00;;;7.70
4421;BMP180;11824;51.178;13.546;2024-03-23T12:00:50;99364.00;;;7.70
4421;BMP180;11824;51.178;13.546;2024-03-23T12:03:19;99363.00;;;7.80
4421;BMP180;11824;51.178;13.546;2024-03-23T12:05:49;99350.00;;;7.80
4421;BMP180;11824;51.178;13.546;2024-03-23T12:08:21;99356.00;;;7.90
4421;BMP180;11824;51.178;13.546;2024-03-23T12:10:50;99346.00;;;7.90
4421;BMP180;11824;51.178;13.546;2024-03-23T12:13:19;99352.00;;;8.00
4421;BMP180;11824;51.178;13.546;2024-03-23T12:15:50;99351.00;;;8.00
4421;BMP180;11824;51.178;13.546;2024-03-23T12:18:18;99334.00;;;8.10
4421;BMP180;11824;51.178;13.546;2024-03-23T12:20:50;99346.00;;;8.20
4421;BMP180;11824;51.178;13.546;2024-03-23T12:23:17;99338.00;;;8.30
4421;BMP180;11824;51.178;13.546;2024-03-23T12:25:49;99339.00;;;8.40
4421;BMP180;11824;51.178;13.546;2024-03-23T12:28:16;99347.00;;;8.50
4421;BMP180;11824;51.178;13.546;2024-03-23T12:30:44;99338.00;;;8.60
4421;BMP180;11824;51.178;13.546;2024-03-23T12:33:12;99331.00;;;8.80
4421;BMP180;11824;51.178;13.546;2024-03-23T12:35:40;99329.00;;;8.90
4421;BMP180;11824;51.178;13.546;2024-03-23T12:38:06;99355.00;;;9.00
4421;BMP180;11824;51.178;13.546;2024-03-23T12:40:34;99367.00;;;9.00
4421;BMP180;11824;51.178;13.546;2024-03-23T12:43:01;99360.00;;;9.10
4421;BMP180;11824;51.178;13.546;2024-03-23T12:45:29;99360.00;;;9.10
4421;BMP180;11824;51.178;13.546;2024-03-23T12:47:56;99358.00;;;9.10
4421;BMP180;11824;51.178;13.546;2024-03-23T12:50:25;99350.00;;;9.00
4421;BMP180;11824;51.178;13.546;2024-03-23T12:52:51;99353.00;;;9.10
4421;BMP180;11824;51.178;13.546;2024-03-23T12:55:19;99352.00;;;9.20
4421;BMP180;11824;51.178;13.546;2024-03-23T12:57:47;99360.00;;;9.20
4421;BMP180;11824;51.178;13.546;2024-03-23T13:00:15;99357.00;;;9.20
4421;BMP180;11824;51.178;13.546;2024-03-23T13:02:43;99367.00;;;9.20
4421;BMP180;11824;51.178;13.546;2024-03-23T13:05:11;99356.00;;;9.20
4421;BMP180;11824;51.178;13.546;2024-03-23T13:07:40;99365.00;;;9.20
4421;BMP180;11824;51.178;13.546;2024-03-23T13:10:08;99355.00;;;9.10
4421;BMP180;11824;51.178;13.546;2024-03-23T13:12:35;99353.00;;;9.10
4421;BMP180;11824;51.178;13.546;2024-03-23T13:15:03;99354.00;;;9.20
4421;BMP180;11824;51.178;13.546;2024-03-23T13:17:30;99354.00;;;9.30
4421;BMP180;11824;51.178;13.546;2024-03-23T13:19:58;99358.00;;;9.30
4421;BMP180;11824;51.178;13.546;2024-03-23T13:22:24;99348.00;;;9.40
4421;BMP180;11824;51.178;13.546;2024-03-23T13:24:53;99325.00;;;9.40
4421;BMP180;11824;51.178;13.546;2024-03-23T13:27:20;99333.00;;;9.50
4421;BMP180;11824;51.178;13.546;2024-03-23T13:29:48;99339.00;;;9.40
4421;BMP180;11824;51.178;13.546;2024-03-23T13:32:15;99358.00;;;9.40
4421;BMP180;11824;51.178;13.546;2024-03-23T13:34:43;99361.00;;;9.50
4421;BMP180;11824;51.178;13.546;2024-03-23T13:37:09;99360.00;;;9.50
4421;BMP180;11824;51.178;13.546;2024-03-23T13:39:37;99350.00;;;9.50
4421;BMP180;11824;51.178;13.546;2024-03-23T13:42:06;99373.00;;;9.50
4421;BMP180;11824;51.178;13.546;2024-03-23T13:44:35;99378.00;;;9.50
4421;BMP180;11824;51.178;13.546;2024-03-23T13:47:03;99374.00;;;9.50
4421;BMP180;11824;51.178;13.546;2024-03-23T13:49:31;99371.00;;;9.50
4421;BMP180;11824;51.178;13.546;2024-03-23T13:51:59;99367.00;;;9.60
4421;BMP180;11824;51.178;13.546;2024-03-23T13:54:27;99367.00;;;9.70
4421;BMP180;11824;51.178;13.546;2024-03-23T13:56:55;99371.00;;;9.80
4421;BMP180;11824;51.178;13.546;2024-03-23T13:59:24;99372.00;;;9.90
4421;BMP180;11824;51.178;13.546;2024-03-23T14:01:52;99361.00;;;9.90
4421;BMP180;11824;51.178;13.546;2024-03-23T14:04:19;99365.00;;;10.00
4421;BMP180;11824;51.178;13.546;2024-03-23T14:06:46;99360.00;;;10.10
4421;BMP180;11824;51.178;13.546;2024-03-23T14:09:14;99360.00;;;10.10
4421;BMP180;11824;51.178;13.546;2024-03-23T14:11:42;99352.00;;;10.20
4421;BMP180;11824;51.178;13.546;2024-03-23T14:14:10;99353.00;;;10.20
4421;BMP180;11824;51.178;13.546;2024-03-23T14:16:38;99348.00;;;10.20
4421;BMP180;11824;51.178;13.546;2024-03-23T14:19:06;99365.00;;;10.20
4421;BMP180;11824;51.178;13.546;2024-03-23T14:21:32;99356.00;;;10.00
4421;BMP180;11824;51.178;13.546;2024-03-23T14:24:00;99363.00;;;10.00
4421;BMP180;11824;51.178;13.546;2024-03-23T14:26:27;99372.00;;;9.90
4421;BMP180;11824;51.178;13.546;2024-03-23T14:28:55;99373.00;;;9.80
4421;BMP180;11824;51.178;13.546;2024-03-23T14:31:22;99375.00;;;9.80
4421;BMP180;11824;51.178;13.546;2024-03-23T14:33:51;99376.00;;;9.80
4421;BMP180;11824;51.178;13.546;2024-03-23T14:36:18;99365.00;;;9.80
4421;BMP180;11824;51.178;13.546;2024-03-23T14:38:48;99365.00;;;9.80
4421;BMP180;11824;51.178;13.546;2024-03-23T14:41:15;99385.00;;;9.80
4421;BMP180;11824;51.178;13.546;2024-03-23T14:43:43;99377.00;;;9.80
4421;BMP180;11824;51.178;13.546;2024-03-23T14:46:11;99372.00;;;9.90
4421;BMP180;11824;51.178;13.546;2024-03-23T14:48:40;99371.00;;;9.90
4421;BMP180;11824;51.178;13.546;2024-03-23T14:51:09;99367.00;;;9.90
4421;BMP180;11824;51.178;13.546;2024-03-23T14:53:38;99361.00;;;9.90
4421;BMP180;11824;51.178;13.546;2024-03-23T14:56:06;99357.00;;;9.90
4421;BMP180;11824;51.178;13.546;2024-03-23T14:58:34;99357.00;;;10.00
4421;BMP180;11824;51.178;13.546;2024-03-23T15:01:02;99346.00;;;10.00
4421;BMP180;11824;51.178;13.546;2024-03-23T15:03:30;99347.00;;;10.00
4421;BMP180;11824;51.178;13.546;2024-03-23T15:05:58;99355.00;;;10.00
4421;BMP180;11824;51.178;13.546;2024-03-23T15:08:27;99345.00;;;10.00
4421;BMP180;11824;51.178;13.546;2024-03-23T15:10:54;99334.00;;;10.00
4421;BMP180;11824;51.178;13.546;2024-03-23T15:13:22;99327.00;;;10.10
4421;BMP180;11824;51.178;13.546;2024-03-23T15:15:49;99331.00;;;10.10